Edenville, Michigan
Current Conditions -  °F | °C
As of 4:32 AM on Monday 20 Oct 2014 (Local Time) from KIKW Reporting Station
Overcast Overcast  
Wind Chill: 45°   Ceiling: 4400
Heat Index: 47°   Visibility: 10mi
Dew Point: 45°   Wind: 6mph
Humidity: 92%   Direction: 190°S
Pressure: 29.81"   Gusts: NA
Location:  43.8°N, 84.38°W
Report Text: KIKW 200832Z AUTO 19005KT 10SM OVC044 09/07 A2981 RMK AO2 T00850072
Loading
Personal Weather Stations






























Interactive Weather Map
Tropical Storm Tracking
New forecast layout! Learn more

10-Day Weather Forecast

Advertisements
Track Severe Weather on mobile